createdAt,value
2024-01-24T00:00:12.436Z,10.70
2024-01-24T00:04:14.426Z,10.80
2024-01-24T00:08:16.253Z,10.80
2024-01-24T00:12:18.404Z,10.80
2024-01-24T00:16:20.519Z,10.90
2024-01-24T00:20:24.165Z,10.80
2024-01-24T00:24:26.292Z,11.00
2024-01-24T00:28:28.819Z,10.90
2024-01-24T00:32:30.843Z,11.00
2024-01-24T00:36:32.732Z,11.00
2024-01-24T00:40:34.554Z,11.10
2024-01-24T00:44:40.106Z,11.10
2024-01-24T00:48:42.036Z,11.10
2024-01-24T00:52:43.847Z,11.30
2024-01-24T00:56:45.833Z,11.30
2024-01-24T01:00:47.963Z,11.40
2024-01-24T01:04:50.941Z,11.40
2024-01-24T01:08:52.958Z,11.50
2024-01-24T01:12:55.681Z,11.40
2024-01-24T01:16:57.517Z,11.50
2024-01-24T01:20:59.435Z,11.60
2024-01-24T01:25:01.457Z,11.70
2024-01-24T01:29:03.350Z,11.80
2024-01-24T01:33:05.845Z,11.90
2024-01-24T01:37:08.382Z,11.80
2024-01-24T01:41:10.256Z,11.80
2024-01-24T01:45:13.329Z,11.90
2024-01-24T01:49:16.045Z,11.90
2024-01-24T01:53:17.943Z,12.00
2024-01-24T01:57:22.053Z,12.10
2024-01-24T02:01:24.756Z,12.10
2024-01-24T02:05:26.798Z,12.10
2024-01-24T02:09:29.124Z,12.10
2024-01-24T02:13:33.491Z,12.10
2024-01-24T02:17:36.575Z,12.00
2024-01-24T02:21:38.613Z,12.00
2024-01-24T02:25:40.533Z,12.10
2024-01-24T02:29:42.456Z,12.10
2024-01-24T02:33:44.684Z,12.10
2024-01-24T02:37:46.575Z,12.20
2024-01-24T02:41:48.790Z,12.40
2024-01-24T02:45:50.735Z,12.30
2024-01-24T02:49:52.733Z,12.20
2024-01-24T02:53:54.749Z,12.20
2024-01-24T02:57:56.877Z,12.30
2024-01-24T03:01:58.786Z,12.30
2024-01-24T03:06:00.670Z,12.30
2024-01-24T03:10:03.443Z,12.30
2024-01-24T03:14:05.541Z,12.50
2024-01-24T03:18:08.058Z,12.30
2024-01-24T03:22:09.968Z,12.40
2024-01-24T03:26:14.464Z,12.60
2024-01-24T03:30:16.648Z,12.40
2024-01-24T03:34:18.746Z,12.30
2024-01-24T03:38:21.430Z,12.30
2024-01-24T03:42:23.644Z,12.30
2024-01-24T03:46:25.452Z,12.30
2024-01-24T03:50:27.340Z,12.20
2024-01-24T03:54:29.152Z,12.30
2024-01-24T03:58:31.295Z,12.40
2024-01-24T04:02:33.128Z,12.30
2024-01-24T04:06:36.888Z,12.40
2024-01-24T04:10:38.884Z,12.50
2024-01-24T04:14:40.655Z,12.40
2024-01-24T04:18:42.516Z,12.50
2024-01-24T04:22:44.358Z,12.50
2024-01-24T04:26:46.249Z,12.60
2024-01-24T04:30:48.517Z,12.70
2024-01-24T04:34:50.470Z,12.80
2024-01-24T04:38:52.568Z,12.70
2024-01-24T04:42:56.561Z,12.70
2024-01-24T04:46:58.714Z,12.90
2024-01-24T04:51:01.241Z,12.80
2024-01-24T04:55:03.235Z,12.60
2024-01-24T04:59:06.281Z,12.60
2024-01-24T05:03:08.492Z,12.60
2024-01-24T05:07:10.591Z,12.90
2024-01-24T05:11:12.777Z,13.00
2024-01-24T05:15:15.371Z,13.10
2024-01-24T05:19:17.347Z,13.00
2024-01-24T05:23:19.653Z,12.90
2024-01-24T05:27:21.692Z,12.80
2024-01-24T05:31:24.111Z,13.00
2024-01-24T05:35:25.860Z,12.90
2024-01-24T05:39:27.990Z,13.00
2024-01-24T05:43:30.810Z,12.90
2024-01-24T05:47:33.716Z,12.70
2024-01-24T05:51:35.737Z,12.60
2024-01-24T05:55:38.246Z,12.40
2024-01-24T05:59:41.378Z,12.40
2024-01-24T06:03:43.451Z,12.30
2024-01-24T06:07:45.770Z,12.20
2024-01-24T06:11:49.928Z,12.10
2024-01-24T06:15:54.926Z,12.00
2024-01-24T06:19:56.924Z,12.00
2024-01-24T06:23:58.875Z,11.90
2024-01-24T06:28:01.098Z,11.80
2024-01-24T06:32:02.982Z,11.70
2024-01-24T06:36:05.107Z,11.80
2024-01-24T06:40:07.622Z,11.60
2024-01-24T06:44:09.712Z,11.60
2024-01-24T06:48:11.723Z,11.60
2024-01-24T06:52:14.033Z,11.60
2024-01-24T06:56:16.079Z,11.80
2024-01-24T07:00:19.861Z,11.60
2024-01-24T07:04:21.989Z,11.60
2024-01-24T07:08:24.615Z,11.50
2024-01-24T07:12:26.766Z,11.50
2024-01-24T07:16:29.419Z,11.50
2024-01-24T07:20:31.469Z,11.40
2024-01-24T07:24:33.482Z,11.30
2024-01-24T07:28:36.496Z,11.30
2024-01-24T07:32:41.138Z,11.30
2024-01-24T07:36:43.732Z,11.30
2024-01-24T07:40:45.646Z,11.30
2024-01-24T07:44:47.723Z,11.30
2024-01-24T07:48:50.194Z,11.10
2024-01-24T07:52:52.568Z,11.00
2024-01-24T07:56:54.622Z,11.10
2024-01-24T08:00:56.565Z,11.00
2024-01-24T08:04:59.314Z,11.00
2024-01-24T08:09:01.459Z,10.90
2024-01-24T08:13:03.516Z,11.00
2024-01-24T08:17:07.414Z,11.10
2024-01-24T08:21:09.282Z,11.10
2024-01-24T08:25:11.420Z,11.00
2024-01-24T08:29:21.905Z,11.00
2024-01-24T08:33:27.948Z,10.90
2024-01-24T08:37:30.507Z,10.90
2024-01-24T08:41:32.372Z,11.00
2024-01-24T08:45:34.610Z,11.00
2024-01-24T08:49:36.801Z,11.00
2024-01-24T08:53:39.319Z,11.10
2024-01-24T08:57:42.965Z,11.10
2024-01-24T09:01:47.229Z,11.10
2024-01-24T09:05:52.668Z,11.10
2024-01-24T09:09:54.916Z,11.10
2024-01-24T09:13:57.629Z,11.10
2024-01-24T09:17:59.460Z,11.10
2024-01-24T09:22:02.608Z,11.10
2024-01-24T09:26:06.151Z,11.10
2024-01-24T09:30:08.725Z,11.10
2024-01-24T09:34:15.926Z,11.10
2024-01-24T09:38:18.199Z,11.20
2024-01-24T09:42:28.865Z,11.10
2024-01-24T09:46:31.791Z,11.10
2024-01-24T09:50:33.567Z,11.10
2024-01-24T09:54:36.439Z,11.10
2024-01-24T09:58:38.576Z,11.10
2024-01-24T10:02:44.537Z,11.10
2024-01-24T10:06:47.530Z,11.10
2024-01-24T10:10:49.621Z,11.10
2024-01-24T10:14:52.112Z,11.20
2024-01-24T10:18:58.143Z,11.30
2024-01-24T10:23:00.529Z,11.30
2024-01-24T10:27:03.199Z,11.40
2024-01-24T10:31:06.809Z,11.40
2024-01-24T10:35:10.182Z,11.30
2024-01-24T10:39:15.436Z,11.30
2024-01-24T10:43:21.333Z,11.20
2024-01-24T10:47:24.224Z,11.20
2024-01-24T10:51:27.591Z,11.20
2024-01-24T10:55:32.496Z,11.20
2024-01-24T10:59:39.995Z,11.10
2024-01-24T11:03:42.959Z,11.00
2024-01-24T11:07:55.855Z,11.00
2024-01-24T11:11:59.732Z,11.00
2024-01-24T11:16:02.393Z,11.00
2024-01-24T11:20:08.381Z,11.10
2024-01-24T11:24:10.587Z,11.10
2024-01-24T11:28:12.494Z,11.10
2024-01-24T11:32:46.582Z,11.00
2024-01-24T11:36:52.504Z,11.10
2024-01-24T11:41:04.149Z,11.10
2024-01-24T11:45:17.770Z,11.10
2024-01-24T11:49:22.841Z,11.20
2024-01-24T11:53:25.961Z,11.10
2024-01-24T11:57:29.937Z,11.00
2024-01-24T12:01:32.810Z,11.10
2024-01-24T12:05:37.150Z,11.10
2024-01-24T12:09:46.020Z,11.10
2024-01-24T12:14:00.593Z,11.10
2024-01-24T12:18:14.997Z,11.00
2024-01-24T12:22:24.965Z,11.10
2024-01-24T12:26:41.161Z,11.10
2024-01-24T12:31:05.024Z,11.20
2024-01-24T12:35:22.931Z,11.00
2024-01-24T12:39:40.799Z,11.00
2024-01-24T12:43:43.067Z,10.90
2024-01-24T12:57:10.136Z,11.00
2024-01-24T13:01:14.500Z,11.10
2024-01-24T13:05:25.968Z,11.10
2024-01-24T13:09:37.245Z,10.90
2024-01-24T13:13:44.602Z,11.00
2024-01-24T13:18:01.593Z,11.10
2024-01-24T13:22:03.788Z,11.10
2024-01-24T13:26:05.809Z,11.10
2024-01-24T13:30:12.034Z,11.10
2024-01-24T13:34:14.431Z,11.00
2024-01-24T13:38:16.867Z,11.10
2024-01-24T13:42:18.820Z,11.10
2024-01-24T13:46:23.225Z,11.00
2024-01-24T13:50:26.474Z,11.10
2024-01-24T13:54:28.467Z,11.00
2024-01-24T13:58:30.926Z,11.10
2024-01-24T14:02:33.322Z,11.20
2024-01-24T14:06:35.279Z,11.00
2024-01-24T14:10:37.600Z,10.90
2024-01-24T14:14:39.723Z,10.90
2024-01-24T14:18:43.225Z,10.90
2024-01-24T14:22:45.403Z,10.80
2024-01-24T14:26:49.119Z,10.90
2024-01-24T14:30:51.845Z,10.90
2024-01-24T14:34:54.334Z,10.80
2024-01-24T14:38:56.240Z,10.80
2024-01-24T14:42:58.509Z,10.70
2024-01-24T14:47:00.400Z,10.70
2024-01-24T14:51:02.177Z,10.70
2024-01-24T14:55:04.657Z,10.70
2024-01-24T14:59:06.581Z,10.70
2024-01-24T15:03:08.816Z,10.60
2024-01-24T15:07:10.790Z,10.70
2024-01-24T15:11:14.955Z,10.60
2024-01-24T15:15:16.984Z,10.60
2024-01-24T15:19:19.232Z,10.50
2024-01-24T15:23:21.389Z,10.50
2024-01-24T15:27:25.070Z,10.50
2024-01-24T15:31:27.277Z,10.40
2024-01-24T15:35:29.769Z,10.30
2024-01-24T15:39:32.424Z,10.40
2024-01-24T15:43:38.918Z,10.30
2024-01-24T15:47:42.228Z,10.20
2024-01-24T15:51:44.376Z,10.20
2024-01-24T15:55:46.384Z,10.20
2024-01-24T15:59:48.328Z,10.20
2024-01-24T16:03:50.568Z,10.10
2024-01-24T16:07:54.835Z,10.10
2024-01-24T16:11:57.201Z,10.10
2024-01-24T16:16:03.262Z,10.00
2024-01-24T16:20:09.497Z,10.00
2024-01-24T16:24:11.453Z,9.90
2024-01-24T16:28:16.121Z,9.80
2024-01-24T16:32:18.476Z,9.80
2024-01-24T16:36:20.288Z,9.70
2024-01-24T16:40:24.653Z,9.70
2024-01-24T16:44:26.647Z,9.70
2024-01-24T16:48:28.665Z,9.70
2024-01-24T16:52:30.803Z,9.70
2024-01-24T16:56:32.570Z,9.60
2024-01-24T17:00:34.436Z,9.60
2024-01-24T17:04:38.395Z,9.50
2024-01-24T17:08:40.427Z,9.60
2024-01-24T17:12:42.377Z,9.50
2024-01-24T17:16:44.489Z,9.50
2024-01-24T17:20:47.315Z,9.50
2024-01-24T17:24:49.329Z,9.50
2024-01-24T17:28:53.815Z,9.50
2024-01-24T17:32:59.405Z,9.50
2024-01-24T17:37:01.616Z,9.50
2024-01-24T17:41:03.710Z,9.50
2024-01-24T17:45:06.553Z,9.50
2024-01-24T17:49:08.547Z,9.50
2024-01-24T17:53:13.354Z,9.50
2024-01-24T17:57:15.671Z,9.50
2024-01-24T18:01:19.446Z,9.40
2024-01-24T18:05:21.761Z,9.30
2024-01-24T18:09:24.396Z,9.30
2024-01-24T18:13:30.242Z,9.30
2024-01-24T18:17:32.167Z,9.20
2024-01-24T18:21:34.116Z,9.20
2024-01-24T18:25:36.152Z,9.20
2024-01-24T18:29:40.387Z,9.20
2024-01-24T18:33:42.749Z,9.10
2024-01-24T18:37:44.505Z,9.10
2024-01-24T18:41:46.261Z,9.00
2024-01-24T18:45:48.183Z,9.10
2024-01-24T18:49:57.804Z,9.10
2024-01-24T18:53:59.871Z,9.00
2024-01-24T18:58:03.475Z,9.00
2024-01-24T19:02:06.036Z,9.10
2024-01-24T19:06:08.997Z,9.00
2024-01-24T19:10:10.920Z,9.00
2024-01-24T19:14:13.193Z,9.00
2024-01-24T19:18:20.249Z,8.90
2024-01-24T19:22:24.842Z,8.90
2024-01-24T19:26:32.664Z,8.90
2024-01-24T19:30:34.530Z,8.80
2024-01-24T19:34:37.294Z,8.80
2024-01-24T19:38:39.388Z,8.90
2024-01-24T19:42:41.303Z,8.90
2024-01-24T19:46:43.787Z,8.90
2024-01-24T19:50:45.692Z,8.80
2024-01-24T19:54:47.903Z,8.80
2024-01-24T19:58:50.167Z,8.80
2024-01-24T20:02:52.031Z,8.70
2024-01-24T20:06:54.237Z,8.70
2024-01-24T20:10:56.439Z,8.70
2024-01-24T20:14:58.214Z,8.70
2024-01-24T20:19:00.347Z,8.70
2024-01-24T20:23:03.743Z,8.60
2024-01-24T20:27:05.725Z,8.60
2024-01-24T20:31:07.823Z,8.60
2024-01-24T20:35:09.955Z,8.60
2024-01-24T20:39:12.810Z,8.60
2024-01-24T20:43:14.727Z,8.60
2024-01-24T20:47:17.067Z,8.60
2024-01-24T20:51:19.060Z,8.60
2024-01-24T20:55:21.073Z,8.60
2024-01-24T20:59:24.439Z,8.70
2024-01-24T21:03:28.677Z,8.70
2024-01-24T21:07:30.680Z,8.70
2024-01-24T21:11:33.908Z,8.70
2024-01-24T21:15:35.975Z,8.70
2024-01-24T21:19:37.951Z,8.70
2024-01-24T21:23:40.199Z,8.70
2024-01-24T21:27:42.402Z,8.70
2024-01-24T21:31:46.816Z,8.70
2024-01-24T21:35:48.783Z,8.80
2024-01-24T21:51:16.186Z,8.70
2024-01-24T21:55:18.434Z,8.70
2024-01-24T21:59:21.679Z,8.70
2024-01-24T22:03:23.570Z,8.70
2024-01-24T22:07:25.490Z,8.70
2024-01-24T22:11:29.066Z,8.70
2024-01-24T22:15:34.513Z,8.80
2024-01-24T22:19:36.377Z,8.80
2024-01-24T22:23:38.647Z,8.80
2024-01-24T22:27:40.575Z,8.70
2024-01-24T22:31:42.620Z,8.80
2024-01-24T22:35:44.522Z,8.70
2024-01-24T22:39:46.668Z,8.80
2024-01-24T22:48:00.186Z,8.70
2024-01-24T22:52:02.734Z,8.70
2024-01-24T22:56:04.800Z,8.70
2024-01-24T23:00:12.622Z,8.70
2024-01-24T23:04:14.550Z,8.80
2024-01-24T23:08:18.186Z,8.70
2024-01-24T23:12:20.163Z,8.70
2024-01-24T23:16:22.353Z,8.70
2024-01-24T23:20:24.404Z,8.70
2024-01-24T23:24:26.525Z,8.70
2024-01-24T23:28:28.603Z,8.70
2024-01-24T23:32:30.530Z,8.70
2024-01-24T23:36:32.423Z,8.70
2024-01-24T23:40:34.208Z,8.70
2024-01-24T23:44:45.930Z,8.70
2024-01-24T23:48:48.098Z,8.70
2024-01-24T23:52:50.384Z,8.70
2024-01-24T23:56:52.773Z,8.70
